Normangee, Texas
Current Conditions -  °F | °C
As of 12:15 AM on Monday 26 Jan 2015 (Local Time) from KCFD Reporting Station
Clear Clear  
Wind Chill: 47°   Ceiling: Unl
Heat Index: 49°   Visibility: 10mi
Dew Point: 29°   Wind: 6mph
Humidity: 45%   Direction: 310°NW
Pressure: 30.2"   Gusts: NA
Location:  31.03°N, 96.11°W
Report Text: KCFD 260615Z AUTO 31005KT 10SM CLR 10/M02 A3020 RMK AO2 T00951018
Loading
Personal Weather Stations






























Interactive Weather Map New forecast layout! Learn more

10-Day Weather Forecast

Advertisements
Track Severe Weather on mobile